createdAt,value
2023-01-03T00:01:42.398Z,12.17
2023-01-03T00:04:12.812Z,10.43
2023-01-03T00:06:43.829Z,13.43
2023-01-03T00:09:15.355Z,9.57
2023-01-03T00:12:01.368Z,7.93
2023-01-03T00:14:32.010Z,8.60
2023-01-03T00:17:01.889Z,8.40
2023-01-03T00:19:34.296Z,7.73
2023-01-03T00:22:02.365Z,9.23
2023-01-03T00:24:30.651Z,7.37
2023-01-03T00:26:58.781Z,8.20
2023-01-03T00:29:26.974Z,6.70
2023-01-03T00:31:57.453Z,11.70
2023-01-03T00:34:25.978Z,20.20
2023-01-03T00:36:55.800Z,19.07
2023-01-03T00:39:24.432Z,17.80
2023-01-03T00:41:52.843Z,10.13
2023-01-03T00:44:21.742Z,11.10
2023-01-03T00:46:50.127Z,13.97
2023-01-03T00:49:18.542Z,6.07
2023-01-03T00:51:47.223Z,5.53
2023-01-03T00:54:17.414Z,6.00
2023-01-03T00:56:47.244Z,8.50
2023-01-03T00:59:16.994Z,6.90
2023-01-03T01:01:48.000Z,6.43
2023-01-03T01:04:21.026Z,12.13
2023-01-03T01:06:51.370Z,7.67
2023-01-03T01:09:22.916Z,5.40
2023-01-03T01:11:51.638Z,5.83
2023-01-03T01:14:22.459Z,5.47
2023-01-03T01:16:52.660Z,5.47
2023-01-03T01:19:22.353Z,5.93
2023-01-03T01:21:50.460Z,5.87
2023-01-03T01:24:18.568Z,7.30
2023-01-03T01:26:48.391Z,8.10
2023-01-03T01:29:18.121Z,7.40
2023-01-03T01:31:47.172Z,7.70
2023-01-03T01:34:15.821Z,7.87
2023-01-03T01:36:44.806Z,6.80
2023-01-03T01:39:15.289Z,6.97
2023-01-03T01:42:02.235Z,6.43
2023-01-03T01:44:55.457Z,7.60
2023-01-03T01:47:37.587Z,17.63
2023-01-03T01:50:14.942Z,7.50
2023-01-03T01:52:47.323Z,12.10
2023-01-03T01:55:19.797Z,7.33
2023-01-03T01:57:48.128Z,9.83
2023-01-03T02:00:17.921Z,6.27
2023-01-03T02:02:49.385Z,6.07
2023-01-03T02:05:19.811Z,6.47
2023-01-03T02:07:50.430Z,6.83
2023-01-03T02:10:20.016Z,6.30
2023-01-03T02:13:14.756Z,6.30
2023-01-03T02:16:05.163Z,7.00
2023-01-03T02:18:56.094Z,6.80
2023-01-03T02:21:56.728Z,6.20
2023-01-03T02:24:53.247Z,5.60
2023-01-03T02:28:02.807Z,5.03
2023-01-03T02:30:47.873Z,4.33
2023-01-03T02:33:25.585Z,4.17
2023-01-03T02:36:05.110Z,4.73
2023-01-03T02:38:43.550Z,4.80
2023-01-03T02:41:20.525Z,4.20
2023-01-03T02:43:54.289Z,3.73
2023-01-03T02:46:31.743Z,4.10
2023-01-03T02:49:05.317Z,4.37
2023-01-03T02:51:37.162Z,4.03
2023-01-03T02:54:07.778Z,3.50
2023-01-03T02:56:40.353Z,4.70
2023-01-03T02:59:13.442Z,6.10
2023-01-03T03:01:45.767Z,7.53
2023-01-03T03:04:15.771Z,7.43
2023-01-03T03:06:51.081Z,7.93
2023-01-03T03:09:19.352Z,7.73
2023-01-03T03:12:06.187Z,7.93
2023-01-03T03:14:38.646Z,7.83
2023-01-03T03:17:12.391Z,7.63
2023-01-03T03:20:03.125Z,8.67
2023-01-03T03:22:56.187Z,7.70
2023-01-03T03:25:29.539Z,8.50
2023-01-03T03:28:23.209Z,7.50
2023-01-03T03:30:55.807Z,7.60
2023-01-03T03:33:27.886Z,7.37
2023-01-03T03:36:03.612Z,7.30
2023-01-03T03:38:35.972Z,7.47
2023-01-03T03:41:31.674Z,9.97
2023-01-03T03:44:22.430Z,8.07
2023-01-03T03:47:04.162Z,7.60
2023-01-03T03:49:41.110Z,7.10
2023-01-03T03:52:14.650Z,7.07
2023-01-03T03:54:48.094Z,7.80
2023-01-03T03:57:20.728Z,8.03
2023-01-03T03:59:54.241Z,7.73
2023-01-03T04:02:25.121Z,8.20
2023-01-03T04:04:59.575Z,7.97
2023-01-03T04:07:27.739Z,8.50
2023-01-03T04:09:55.849Z,8.10
2023-01-03T04:12:24.167Z,7.80
2023-01-03T04:14:52.342Z,7.97
2023-01-03T04:17:20.452Z,7.37
2023-01-03T04:19:48.568Z,8.50
2023-01-03T04:22:18.182Z,9.53
2023-01-03T04:24:46.180Z,8.90
2023-01-03T04:27:14.216Z,8.20
2023-01-03T04:29:43.005Z,8.47
2023-01-03T04:32:11.262Z,8.40
2023-01-03T04:34:39.533Z,8.60
2023-01-03T04:37:07.702Z,7.83
2023-01-03T04:39:37.131Z,7.70
2023-01-03T04:42:25.836Z,7.50
2023-01-03T04:44:53.129Z,7.70
2023-01-03T04:47:21.598Z,7.43
2023-01-03T04:49:49.951Z,7.87
2023-01-03T04:52:18.538Z,7.70
2023-01-03T04:54:47.932Z,7.60
2023-01-03T04:57:16.163Z,8.30
2023-01-03T04:59:44.386Z,8.33
2023-01-03T05:02:12.551Z,8.67
2023-01-03T05:04:40.900Z,8.20
2023-01-03T05:07:09.052Z,7.87
2023-01-03T05:09:37.244Z,7.77
2023-01-03T05:12:07.405Z,8.60
2023-01-03T05:14:37.200Z,8.30
2023-01-03T05:17:05.406Z,8.03
2023-01-03T05:19:33.833Z,8.70
2023-01-03T05:22:30.527Z,7.83
2023-01-03T05:25:15.832Z,7.50
2023-01-03T05:27:45.532Z,7.03
2023-01-03T05:30:14.059Z,7.63
2023-01-03T05:32:42.394Z,7.90
2023-01-03T05:35:11.140Z,8.03
2023-01-03T05:37:39.231Z,7.73
2023-01-03T05:40:08.527Z,7.67
2023-01-03T05:42:36.696Z,7.67
2023-01-03T05:45:07.001Z,7.63
2023-01-03T05:47:34.969Z,7.17
2023-01-03T05:50:03.169Z,7.13
2023-01-03T05:52:31.360Z,7.77
2023-01-03T05:54:59.319Z,6.73
2023-01-03T05:57:31.850Z,6.50
2023-01-03T06:00:03.798Z,7.30
2023-01-03T06:02:34.060Z,14.37
2023-01-03T06:05:02.347Z,9.03
2023-01-03T06:07:31.264Z,45.17
2023-01-03T06:09:59.282Z,27.20
2023-01-03T06:12:27.905Z,17.13
2023-01-03T06:14:56.181Z,16.83
2023-01-03T06:17:42.037Z,10.90
2023-01-03T06:20:11.813Z,8.80
2023-01-03T06:22:40.092Z,7.67
2023-01-03T06:25:08.798Z,9.10
2023-01-03T06:27:36.946Z,9.13
2023-01-03T06:30:05.808Z,9.97
2023-01-03T06:32:34.140Z,9.43
2023-01-03T06:35:02.191Z,7.87
2023-01-03T06:37:31.571Z,14.53
2023-01-03T06:39:59.531Z,32.17
2023-01-03T06:42:45.892Z,15.47
2023-01-03T06:45:33.453Z,10.87
2023-01-03T06:48:23.718Z,9.07
2023-01-03T06:51:09.858Z,15.83
2023-01-03T06:53:44.054Z,62.07
2023-01-03T06:56:12.620Z,29.30
2023-01-03T06:58:40.797Z,24.17
2023-01-03T07:01:09.094Z,25.10
2023-01-03T07:03:37.405Z,20.30
2023-01-03T07:06:05.761Z,16.20
2023-01-03T07:08:33.829Z,10.40
2023-01-03T07:11:03.332Z,10.23
2023-01-03T07:13:48.785Z,17.77
2023-01-03T07:16:17.541Z,11.50
2023-01-03T07:18:52.659Z,8.47
2023-01-03T07:21:24.007Z,7.43
2023-01-03T07:23:53.912Z,7.43
2023-01-03T07:26:24.519Z,7.47
2023-01-03T07:28:52.549Z,6.57
2023-01-03T07:31:20.656Z,7.77
2023-01-03T07:33:48.891Z,7.77
2023-01-03T07:36:17.774Z,8.27
2023-01-03T07:38:46.935Z,8.20
2023-01-03T07:41:15.786Z,8.63
2023-01-03T07:43:46.063Z,9.40
2023-01-03T07:46:16.877Z,9.50
2023-01-03T07:48:46.184Z,9.37
2023-01-03T07:51:16.357Z,9.60
2023-01-03T07:53:45.069Z,9.83
2023-01-03T07:56:14.890Z,10.17
2023-01-03T07:58:45.579Z,10.00
2023-01-03T08:01:16.680Z,10.57
2023-01-03T08:03:45.534Z,9.83
2023-01-03T08:06:15.338Z,10.30
2023-01-03T08:08:43.341Z,10.23
2023-01-03T08:11:30.797Z,9.97
2023-01-03T08:14:00.904Z,9.80
2023-01-03T08:16:29.102Z,9.07
2023-01-03T08:18:57.080Z,9.17
2023-01-03T08:21:25.123Z,8.43
2023-01-03T08:23:53.429Z,8.90
2023-01-03T08:26:21.425Z,7.87
2023-01-03T08:28:49.397Z,7.10
2023-01-03T08:31:22.403Z,7.10
2023-01-03T08:33:53.616Z,6.53
2023-01-03T08:36:24.471Z,8.20
2023-01-03T08:38:58.717Z,7.40
2023-01-03T08:41:30.457Z,7.67
2023-01-03T08:44:00.993Z,7.77
2023-01-03T08:46:33.197Z,9.67
2023-01-03T08:49:01.946Z,8.00
2023-01-03T08:51:30.129Z,7.10
2023-01-03T08:53:58.345Z,6.50
2023-01-03T08:56:26.452Z,7.10
2023-01-03T08:58:57.659Z,6.90
2023-01-03T09:01:26.057Z,6.63
2023-01-03T09:03:55.761Z,6.83
2023-01-03T09:06:24.076Z,6.07
2023-01-03T09:08:52.278Z,6.30
2023-01-03T09:11:20.404Z,6.13
2023-01-03T09:13:48.455Z,6.27
2023-01-03T09:16:17.006Z,6.27
2023-01-03T09:18:45.408Z,6.47
2023-01-03T09:21:14.781Z,6.57
2023-01-03T09:23:42.723Z,5.67
2023-01-03T09:26:10.805Z,6.07
2023-01-03T09:28:39.030Z,6.07
2023-01-03T09:31:07.017Z,5.57
2023-01-03T09:33:35.111Z,5.00
2023-01-03T09:36:03.135Z,5.70
2023-01-03T09:38:32.678Z,5.40
2023-01-03T09:41:03.631Z,5.77
2023-01-03T09:43:37.506Z,6.40
2023-01-03T09:46:06.623Z,5.47
2023-01-03T09:48:38.246Z,5.10
2023-01-03T09:51:30.438Z,5.30
2023-01-03T09:54:17.488Z,5.20
2023-01-03T09:57:02.985Z,4.87
2023-01-03T09:59:55.104Z,5.33
2023-01-03T10:02:59.753Z,4.13
2023-01-03T10:05:43.829Z,4.33
2023-01-03T10:08:23.070Z,4.27
2023-01-03T10:11:02.084Z,3.27
2023-01-03T10:13:43.807Z,27.47
2023-01-03T10:16:21.417Z,8.90
2023-01-03T10:19:05.368Z,3.40
2023-01-03T10:21:45.987Z,26.13
2023-01-03T10:24:19.400Z,17.83
2023-01-03T10:26:50.215Z,3.50
2023-01-03T10:29:19.676Z,3.70
2023-01-03T10:32:04.325Z,7.27
2023-01-03T10:34:32.426Z,3.60
2023-01-03T10:37:00.555Z,3.23
2023-01-03T10:39:31.484Z,3.70
2023-01-03T10:42:01.429Z,3.27
2023-01-03T10:44:31.772Z,3.13
2023-01-03T10:47:01.275Z,4.30
2023-01-03T10:49:30.890Z,3.37
2023-01-03T10:52:03.487Z,2.80
2023-01-03T10:54:46.462Z,3.50
2023-01-03T10:57:39.324Z,3.60
2023-01-03T11:00:26.586Z,3.57
2023-01-03T11:02:56.007Z,3.40
2023-01-03T11:05:26.522Z,3.90
2023-01-03T11:07:57.249Z,3.20
2023-01-03T11:10:27.441Z,2.70
2023-01-03T11:12:56.876Z,2.97
2023-01-03T11:15:39.144Z,3.50
2023-01-03T11:18:20.768Z,2.63
2023-01-03T11:20:55.583Z,4.30
2023-01-03T11:23:38.915Z,2.87
2023-01-03T11:26:19.558Z,2.77
2023-01-03T11:29:07.253Z,6.93
2023-01-03T11:31:50.061Z,2.80
2023-01-03T11:35:12.074Z,2.50
2023-01-03T11:37:38.001Z,2.37
2023-01-03T11:40:17.725Z,1.70
2023-01-03T11:43:02.187Z,2.10
2023-01-03T11:45:49.368Z,2.00
2023-01-03T11:48:47.088Z,1.60
2023-01-03T11:51:18.770Z,1.70
2023-01-03T11:53:57.291Z,1.67
2023-01-03T11:56:30.867Z,1.50
2023-01-03T11:59:28.190Z,1.90
2023-01-03T12:02:24.890Z,1.70
2023-01-03T12:05:06.115Z,1.80
2023-01-03T12:07:48.690Z,1.47
2023-01-03T12:10:23.922Z,1.80
2023-01-03T12:13:16.016Z,5.47
2023-01-03T12:15:50.144Z,2.90
2023-01-03T12:18:26.459Z,1.60
2023-01-03T12:21:00.204Z,1.53
2023-01-03T12:23:39.059Z,2.07
2023-01-03T12:26:11.157Z,1.83
2023-01-03T12:28:42.209Z,2.40
2023-01-03T12:31:26.263Z,1.90
2023-01-03T12:34:09.472Z,4.20
2023-01-03T12:36:45.365Z,9.13
2023-01-03T12:39:46.388Z,8.47
2023-01-03T12:42:23.098Z,4.50
2023-01-03T12:44:59.405Z,1.77
2023-01-03T12:47:33.113Z,1.30
2023-01-03T12:50:08.417Z,1.30
2023-01-03T12:52:38.976Z,1.20
2023-01-03T12:55:19.744Z,1.20
2023-01-03T12:58:15.791Z,1.90
2023-01-03T13:00:54.750Z,1.63
2023-01-03T13:03:27.634Z,1.80
2023-01-03T13:06:03.741Z,3.73
2023-01-03T13:08:37.396Z,1.80
2023-01-03T13:11:14.826Z,2.10
2023-01-03T13:13:50.936Z,2.60
2023-01-03T13:16:43.099Z,3.00
2023-01-03T13:19:52.278Z,1.70
2023-01-03T13:22:33.803Z,2.00
2023-01-03T13:25:31.122Z,1.90
2023-01-03T13:28:00.832Z,1.60
2023-01-03T13:30:30.520Z,1.10
2023-01-03T13:33:21.368Z,6.27
2023-01-03T13:36:11.010Z,3.57
2023-01-03T13:38:40.625Z,1.60
2023-01-03T13:41:31.799Z,1.60
2023-01-03T13:44:09.626Z,1.67
2023-01-03T13:46:42.206Z,1.50
2023-01-03T13:49:20.012Z,1.30
2023-01-03T13:51:51.789Z,1.40
2023-01-03T13:55:02.750Z,1.40
2023-01-03T13:57:38.328Z,1.70
2023-01-03T14:00:20.186Z,1.40
2023-01-03T14:03:29.252Z,1.40
2023-01-03T14:06:51.104Z,1.73
2023-01-03T14:09:45.871Z,1.70
2023-01-03T14:12:50.490Z,1.50
2023-01-03T14:15:26.240Z,1.80
2023-01-03T14:17:57.968Z,2.17
2023-01-03T14:20:29.869Z,1.93
2023-01-03T14:23:17.245Z,1.90
2023-01-03T14:25:52.805Z,1.80
2023-01-03T14:28:24.245Z,1.73
2023-01-03T14:31:05.489Z,1.70
2023-01-03T14:33:39.298Z,2.20
2023-01-03T14:36:09.574Z,19.83
2023-01-03T14:38:37.628Z,2.33
2023-01-03T14:41:06.106Z,1.83
2023-01-03T14:43:35.301Z,1.97
2023-01-03T14:46:07.371Z,2.13
2023-01-03T14:48:35.978Z,2.07
2023-01-03T14:51:05.736Z,1.80
2023-01-03T14:53:35.422Z,2.20
2023-01-03T14:56:04.465Z,1.73
2023-01-03T14:58:34.717Z,1.90
2023-01-03T15:01:06.624Z,1.80
2023-01-03T15:03:38.090Z,1.70
2023-01-03T15:06:20.174Z,1.87
2023-01-03T15:08:49.997Z,2.13
2023-01-03T15:11:25.150Z,1.90
2023-01-03T15:13:56.843Z,1.70
2023-01-03T15:16:31.398Z,2.40
2023-01-03T15:19:07.886Z,1.90
2023-01-03T15:21:36.084Z,2.30
2023-01-03T15:24:04.219Z,1.80
2023-01-03T15:26:40.615Z,2.20
2023-01-03T15:29:14.237Z,2.03
2023-01-03T15:31:53.001Z,2.40
2023-01-03T15:34:24.734Z,2.33
2023-01-03T15:36:56.767Z,2.20
2023-01-03T15:39:27.402Z,2.20
2023-01-03T15:45:10.284Z,2.43
2023-01-03T15:47:41.187Z,2.60
2023-01-03T15:50:18.905Z,2.60
2023-01-03T15:52:47.007Z,3.23
2023-01-03T15:55:15.595Z,3.13
2023-01-03T15:57:49.608Z,2.60
2023-01-03T16:00:21.290Z,2.97
2023-01-03T16:02:51.513Z,2.93
2023-01-03T16:05:23.092Z,3.03
2023-01-03T16:07:51.691Z,2.80
2023-01-03T16:10:21.713Z,3.17
2023-01-03T16:12:49.922Z,2.70
2023-01-03T16:15:21.587Z,2.73
2023-01-03T16:17:52.131Z,2.87
2023-01-03T16:20:20.985Z,3.97
2023-01-03T16:23:01.163Z,3.70
2023-01-03T16:25:30.350Z,3.60
2023-01-03T16:27:58.450Z,3.90
2023-01-03T16:30:26.544Z,3.80
2023-01-03T16:32:55.953Z,3.70
2023-01-03T16:35:24.034Z,4.10
2023-01-03T16:37:51.987Z,4.30
2023-01-03T16:40:22.124Z,6.17
2023-01-03T16:42:51.285Z,6.57
2023-01-03T16:45:19.613Z,20.80
2023-01-03T16:47:48.707Z,16.43
2023-01-03T16:50:20.944Z,20.60
2023-01-03T16:52:52.426Z,24.47
2023-01-03T16:55:26.111Z,23.50
2023-01-03T16:57:55.291Z,19.60
2023-01-03T17:00:25.547Z,8.63
2023-01-03T17:02:55.990Z,14.50
2023-01-03T17:05:26.735Z,11.47
2023-01-03T17:08:04.087Z,9.10
2023-01-03T17:10:35.209Z,9.77
2023-01-03T17:13:10.479Z,10.73
2023-01-03T17:15:41.845Z,11.63
2023-01-03T17:18:18.603Z,11.40
2023-01-03T17:20:53.863Z,7.50
2023-01-03T17:23:22.378Z,13.00
2023-01-03T17:25:50.836Z,10.17
2023-01-03T17:28:20.055Z,8.73
2023-01-03T17:30:51.345Z,11.20
2023-01-03T17:33:19.918Z,24.87
2023-01-03T17:35:51.060Z,33.43
2023-01-03T17:38:27.721Z,46.00
2023-01-03T17:40:59.856Z,30.83
2023-01-03T17:43:29.079Z,28.07
2023-01-03T17:46:23.060Z,25.23
2023-01-03T17:49:09.857Z,20.87
2023-01-03T17:51:40.289Z,16.77
2023-01-03T17:54:12.042Z,22.80
2023-01-03T17:56:40.746Z,24.60
2023-01-03T17:59:08.950Z,14.63
2023-01-03T18:01:37.361Z,14.23
2023-01-03T18:04:05.719Z,15.37
2023-01-03T18:06:34.200Z,17.17
2023-01-03T18:09:06.174Z,16.03
2023-01-03T18:11:34.645Z,18.20
2023-01-03T18:14:02.733Z,14.60
2023-01-03T18:16:30.780Z,19.57
2023-01-03T18:18:58.776Z,17.47
2023-01-03T18:21:28.739Z,20.00
2023-01-03T18:23:59.671Z,31.33
2023-01-03T18:26:34.276Z,28.70
2023-01-03T18:29:02.362Z,26.77
2023-01-03T18:31:30.926Z,30.23
2023-01-03T18:34:04.160Z,32.53
2023-01-03T18:36:39.839Z,39.17
2023-01-03T18:39:13.022Z,36.60
2023-01-03T18:41:42.985Z,36.53
2023-01-03T18:44:20.546Z,38.70
2023-01-03T18:46:49.152Z,38.90
2023-01-03T18:49:17.675Z,38.37
2023-01-03T18:51:48.179Z,29.17
2023-01-03T18:54:19.488Z,24.40
2023-01-03T18:56:49.311Z,117.50
2023-01-03T18:59:22.588Z,82.23
2023-01-03T19:01:50.720Z,29.50
2023-01-03T19:04:18.801Z,36.27
2023-01-03T19:06:51.420Z,37.97
2023-01-03T19:09:23.312Z,54.63
2023-01-03T19:11:54.092Z,40.33
2023-01-03T19:14:22.485Z,69.43
2023-01-03T19:16:50.643Z,76.37
2023-01-03T19:19:18.780Z,26.07
2023-01-03T19:21:48.142Z,46.20
2023-01-03T19:24:23.968Z,41.13
2023-01-03T19:26:56.297Z,30.07
2023-01-03T19:29:28.452Z,56.63
2023-01-03T19:31:58.066Z,17.60
2023-01-03T19:34:28.124Z,15.67
2023-01-03T19:36:56.119Z,14.70
2023-01-03T19:39:26.237Z,18.33
2023-01-03T19:42:21.895Z,45.90
2023-01-03T19:44:50.469Z,23.53
2023-01-03T19:47:20.097Z,32.67
2023-01-03T19:49:49.060Z,23.37
2023-01-03T19:52:17.727Z,21.73
2023-01-03T19:54:46.171Z,20.53
2023-01-03T19:57:22.038Z,20.70
2023-01-03T19:59:53.874Z,22.50
2023-01-03T20:02:36.289Z,23.70
2023-01-03T20:05:14.457Z,24.03
2023-01-03T20:07:43.171Z,25.37
2023-01-03T20:10:15.552Z,21.90
2023-01-03T20:12:45.564Z,22.93
2023-01-03T20:15:21.375Z,22.17
2023-01-03T20:17:49.533Z,23.17
2023-01-03T20:20:18.190Z,23.93
2023-01-03T20:23:04.437Z,24.37
2023-01-03T20:25:34.739Z,21.47
2023-01-03T20:28:04.489Z,21.40
2023-01-03T20:30:34.825Z,21.93
2023-01-03T20:33:02.984Z,22.17
2023-01-03T20:38:25.124Z,22.70
2023-01-03T20:40:53.674Z,21.67
2023-01-03T20:43:23.340Z,22.57
2023-01-03T20:45:55.029Z,20.67
2023-01-03T20:48:26.186Z,20.50
2023-01-03T20:50:54.783Z,20.80
2023-01-03T20:53:25.455Z,20.33
2023-01-03T20:55:54.428Z,20.93
2023-01-03T20:58:26.224Z,19.77
2023-01-03T21:01:02.027Z,19.10
2023-01-03T21:03:33.143Z,19.17
2023-01-03T21:06:01.524Z,18.10
2023-01-03T21:08:47.244Z,17.57
2023-01-03T21:11:15.499Z,16.37
2023-01-03T21:13:44.873Z,18.20
2023-01-03T21:16:30.044Z,17.60
2023-01-03T21:19:02.522Z,16.83
2023-01-03T21:21:32.797Z,16.77
2023-01-03T21:24:01.523Z,16.77
2023-01-03T21:26:29.777Z,21.20
2023-01-03T21:28:59.730Z,16.70
2023-01-03T21:31:28.262Z,16.40
2023-01-03T21:33:56.428Z,18.17
2023-01-03T21:36:27.814Z,17.67
2023-01-03T21:38:56.437Z,19.27
2023-01-03T21:41:29.785Z,20.87
2023-01-03T21:44:01.051Z,18.70
2023-01-03T21:46:29.252Z,18.80
2023-01-03T21:48:58.389Z,19.50
2023-01-03T21:51:37.748Z,18.67
2023-01-03T21:54:07.666Z,19.90
2023-01-03T21:56:45.418Z,21.10
2023-01-03T21:59:15.961Z,20.77
2023-01-03T22:02:02.670Z,20.83
2023-01-03T22:04:31.105Z,21.70
2023-01-03T22:07:01.158Z,21.17
2023-01-03T22:09:47.819Z,20.60
2023-01-03T22:12:16.572Z,20.00
2023-01-03T22:14:46.493Z,20.90
2023-01-03T22:17:14.720Z,19.53
2023-01-03T22:19:42.863Z,19.73
2023-01-03T22:22:11.164Z,19.17
2023-01-03T22:24:39.209Z,19.43
2023-01-03T22:27:07.533Z,19.10
2023-01-03T22:29:35.645Z,22.57
2023-01-03T22:32:05.503Z,19.80
2023-01-03T22:34:33.724Z,18.60
2023-01-03T22:37:01.748Z,16.57
2023-01-03T22:39:32.269Z,17.57
2023-01-03T22:42:00.335Z,17.67
2023-01-03T22:44:28.380Z,16.73
2023-01-03T22:46:56.427Z,17.13
2023-01-03T22:49:26.006Z,17.70
2023-01-03T22:51:54.227Z,17.53
2023-01-03T22:54:22.466Z,16.63
2023-01-03T22:56:50.758Z,18.73
2023-01-03T22:59:18.780Z,16.63
2023-01-03T23:01:46.895Z,16.13
2023-01-03T23:04:15.012Z,17.00
2023-01-03T23:06:44.449Z,16.67
2023-01-03T23:09:13.996Z,16.07
2023-01-03T23:12:00.018Z,16.33
2023-01-03T23:14:28.973Z,16.60
2023-01-03T23:16:57.016Z,16.37
2023-01-03T23:19:27.183Z,16.70
2023-01-03T23:21:58.366Z,16.20
2023-01-03T23:24:26.712Z,16.27
2023-01-03T23:26:55.134Z,15.37
2023-01-03T23:29:23.457Z,14.27
2023-01-03T23:31:52.825Z,13.20
2023-01-03T23:34:20.983Z,13.70
2023-01-03T23:36:49.431Z,13.70
2023-01-03T23:39:20.013Z,14.67
2023-01-03T23:41:48.395Z,12.57
2023-01-03T23:44:16.483Z,12.80
2023-01-03T23:46:44.581Z,12.57
2023-01-03T23:49:13.520Z,13.10
2023-01-03T23:51:41.806Z,12.00
2023-01-03T23:54:10.781Z,11.70
2023-01-03T23:56:40.241Z,12.10
2023-01-03T23:59:08.235Z,12.17
